sensor_id;sensor_type;location;lat;lon;timestamp;temperature;humidity
10583;DHT22;33679;51.218;6.786;2023-02-15T00:00:01;8.70;99.90
10583;DHT22;33679;51.218;6.786;2023-02-15T00:02:36;8.70;99.90
10583;DHT22;33679;51.218;6.786;2023-02-15T00:05:10;8.70;99.90
10583;DHT22;33679;51.218;6.786;2023-02-15T00:07:43;8.70;99.90
10583;DHT22;33679;51.218;6.786;2023-02-15T00:10:15;8.60;99.90
10583;DHT22;33679;51.218;6.786;2023-02-15T00:12:48;8.60;99.90
10583;DHT22;33679;51.218;6.786;2023-02-15T00:15:20;8.60;99.90
10583;DHT22;33679;51.218;6.786;2023-02-15T00:18:06;8.50;99.90
10583;DHT22;33679;51.218;6.786;2023-02-15T00:20:47;8.60;99.90
10583;DHT22;33679;51.218;6.786;2023-02-15T00:23:28;8.50;99.90
10583;DHT22;33679;51.218;6.786;2023-02-15T00:26:11;8.50;99.90
10583;DHT22;33679;51.218;6.786;2023-02-15T00:28:47;8.50;99.90
10583;DHT22;33679;51.218;6.786;2023-02-15T00:31:19;8.50;99.90
10583;DHT22;33679;51.218;6.786;2023-02-15T00:33:54;8.50;99.90
10583;DHT22;33679;51.218;6.786;2023-02-15T00:36:41;8.50;99.90
10583;DHT22;33679;51.218;6.786;2023-02-15T00:39:14;8.50;99.90
10583;DHT22;33679;51.218;6.786;2023-02-15T00:41:48;8.40;99.90
10583;DHT22;33679;51.218;6.786;2023-02-15T00:44:22;8.40;99.90
10583;DHT22;33679;51.218;6.786;2023-02-15T00:46:55;8.40;99.90
10583;DHT22;33679;51.218;6.786;2023-02-15T00:49:32;8.40;99.90
10583;DHT22;33679;51.218;6.786;2023-02-15T00:52:06;8.40;99.90
10583;DHT22;33679;51.218;6.786;2023-02-15T00:54:40;8.40;99.90
10583;DHT22;33679;51.218;6.786;2023-02-15T00:57:16;8.40;99.90
10583;DHT22;33679;51.218;6.786;2023-02-15T00:59:48;8.40;99.90
10583;DHT22;33679;51.218;6.786;2023-02-15T01:02:21;8.40;99.90
10583;DHT22;33679;51.218;6.786;2023-02-15T01:04:53;8.40;99.90
10583;DHT22;33679;51.218;6.786;2023-02-15T01:07:28;8.40;99.90
10583;DHT22;33679;51.218;6.786;2023-02-15T01:10:05;8.40;99.90
10583;DHT22;33679;51.218;6.786;2023-02-15T01:12:37;8.40;99.90
10583;DHT22;33679;51.218;6.786;2023-02-15T01:15:11;8.40;99.90
10583;DHT22;33679;51.218;6.786;2023-02-15T01:17:43;8.40;99.90
10583;DHT22;33679;51.218;6.786;2023-02-15T01:20:23;8.30;99.90
10583;DHT22;33679;51.218;6.786;2023-02-15T01:22:58;8.30;99.90
10583;DHT22;33679;51.218;6.786;2023-02-15T01:25:32;8.20;99.90
10583;DHT22;33679;51.218;6.786;2023-02-15T01:28:06;8.30;99.90
10583;DHT22;33679;51.218;6.786;2023-02-15T01:30:39;8.20;99.90
10583;DHT22;33679;51.218;6.786;2023-02-15T01:33:11;8.20;99.90
10583;DHT22;33679;51.218;6.786;2023-02-15T01:35:52;8.10;99.90
10583;DHT22;33679;51.218;6.786;2023-02-15T01:38:29;8.10;99.90
10583;DHT22;33679;51.218;6.786;2023-02-15T01:41:01;8.10;99.90
10583;DHT22;33679;51.218;6.786;2023-02-15T01:43:50;8.10;99.90
10583;DHT22;33679;51.218;6.786;2023-02-15T01:46:27;8.10;99.90
10583;DHT22;33679;51.218;6.786;2023-02-15T01:49:04;8.10;99.90
10583;DHT22;33679;51.218;6.786;2023-02-15T01:51:42;8.10;99.90
10583;DHT22;33679;51.218;6.786;2023-02-15T01:54:20;8.10;99.90
10583;DHT22;33679;51.218;6.786;2023-02-15T01:56:59;8.20;99.90
10583;DHT22;33679;51.218;6.786;2023-02-15T01:59:35;8.10;99.90
10583;DHT22;33679;51.218;6.786;2023-02-15T02:02:11;8.10;99.90
10583;DHT22;33679;51.218;6.786;2023-02-15T02:04:48;8.10;99.90
10583;DHT22;33679;51.218;6.786;2023-02-15T02:07:26;8.10;99.90
10583;DHT22;33679;51.218;6.786;2023-02-15T02:10:01;8.10;99.90
10583;DHT22;33679;51.218;6.786;2023-02-15T02:12:38;8.10;99.90
10583;DHT22;33679;51.218;6.786;2023-02-15T02:15:13;8.10;99.90
10583;DHT22;33679;51.218;6.786;2023-02-15T02:17:57;8.10;99.90
10583;DHT22;33679;51.218;6.786;2023-02-15T02:20:49;8.10;99.90
10583;DHT22;33679;51.218;6.786;2023-02-15T02:23:33;8.10;99.90
10583;DHT22;33679;51.218;6.786;2023-02-15T02:33:25;8.10;99.90
10583;DHT22;33679;51.218;6.786;2023-02-15T02:36:08;8.10;99.90
10583;DHT22;33679;51.218;6.786;2023-02-15T02:38:54;8.10;99.90
10583;DHT22;33679;51.218;6.786;2023-02-15T02:41:37;8.00;99.90
10583;DHT22;33679;51.218;6.786;2023-02-15T02:44:15;8.00;99.90
10583;DHT22;33679;51.218;6.786;2023-02-15T02:46:52;7.90;99.90
10583;DHT22;33679;51.218;6.786;2023-02-15T02:49:32;7.90;99.90
10583;DHT22;33679;51.218;6.786;2023-02-15T02:52:07;7.90;99.90
10583;DHT22;33679;51.218;6.786;2023-02-15T02:54:42;7.80;99.90
10583;DHT22;33679;51.218;6.786;2023-02-15T02:57:14;7.90;99.90
10583;DHT22;33679;51.218;6.786;2023-02-15T02:59:48;7.90;99.90
10583;DHT22;33679;51.218;6.786;2023-02-15T03:02:23;7.90;99.90
10583;DHT22;33679;51.218;6.786;2023-02-15T03:05:01;7.90;99.90
10583;DHT22;33679;51.218;6.786;2023-02-15T03:07:36;7.80;99.90
10583;DHT22;33679;51.218;6.786;2023-02-15T03:10:10;7.90;99.90
10583;DHT22;33679;51.218;6.786;2023-02-15T03:12:43;7.80;99.90
10583;DHT22;33679;51.218;6.786;2023-02-15T03:15:18;7.80;99.90
10583;DHT22;33679;51.218;6.786;2023-02-15T03:17:56;7.80;99.90
10583;DHT22;33679;51.218;6.786;2023-02-15T03:20:33;7.80;99.90
10583;DHT22;33679;51.218;6.786;2023-02-15T03:23:16;7.80;99.90
10583;DHT22;33679;51.218;6.786;2023-02-15T03:25:52;7.80;99.90
10583;DHT22;33679;51.218;6.786;2023-02-15T03:28:33;7.80;99.90
10583;DHT22;33679;51.218;6.786;2023-02-15T03:31:08;7.80;99.90
10583;DHT22;33679;51.218;6.786;2023-02-15T03:33:44;7.80;99.90
10583;DHT22;33679;51.218;6.786;2023-02-15T03:36:26;7.80;99.90
10583;DHT22;33679;51.218;6.786;2023-02-15T03:39:08;7.80;99.90
10583;DHT22;33679;51.218;6.786;2023-02-15T03:41:46;7.80;99.90
10583;DHT22;33679;51.218;6.786;2023-02-15T03:44:27;7.90;99.90
10583;DHT22;33679;51.218;6.786;2023-02-15T03:47:08;7.90;99.90
10583;DHT22;33679;51.218;6.786;2023-02-15T03:49:43;7.80;99.90
10583;DHT22;33679;51.218;6.786;2023-02-15T03:52:20;7.80;99.90
10583;DHT22;33679;51.218;6.786;2023-02-15T03:54:55;7.80;99.90
10583;DHT22;33679;51.218;6.786;2023-02-15T03:57:28;7.80;99.90
10583;DHT22;33679;51.218;6.786;2023-02-15T04:00:21;7.70;99.90
10583;DHT22;33679;51.218;6.786;2023-02-15T04:03:23;7.70;99.90
10583;DHT22;33679;51.218;6.786;2023-02-15T04:06:03;7.70;99.90
10583;DHT22;33679;51.218;6.786;2023-02-15T04:08:37;7.70;99.90
10583;DHT22;33679;51.218;6.786;2023-02-15T04:11:28;7.70;99.90
10583;DHT22;33679;51.218;6.786;2023-02-15T04:14:02;7.70;99.90
10583;DHT22;33679;51.218;6.786;2023-02-15T04:16:54;7.60;99.90
10583;DHT22;33679;51.218;6.786;2023-02-15T04:19:26;7.60;99.90
10583;DHT22;33679;51.218;6.786;2023-02-15T04:22:16;7.60;99.90
10583;DHT22;33679;51.218;6.786;2023-02-15T04:25:07;7.60;99.90
10583;DHT22;33679;51.218;6.786;2023-02-15T04:27:45;7.60;99.90
10583;DHT22;33679;51.218;6.786;2023-02-15T04:30:20;7.60;99.90
10583;DHT22;33679;51.218;6.786;2023-02-15T04:32:53;7.60;99.90
10583;DHT22;33679;51.218;6.786;2023-02-15T04:35:26;7.60;99.90
10583;DHT22;33679;51.218;6.786;2023-02-15T04:37:58;7.60;99.90
10583;DHT22;33679;51.218;6.786;2023-02-15T04:40:33;7.60;99.90
10583;DHT22;33679;51.218;6.786;2023-02-15T04:43:09;7.60;99.90
10583;DHT22;33679;51.218;6.786;2023-02-15T04:45:47;7.60;99.90
10583;DHT22;33679;51.218;6.786;2023-02-15T04:48:21;7.60;99.90
10583;DHT22;33679;51.218;6.786;2023-02-15T04:50:57;7.50;99.90
10583;DHT22;33679;51.218;6.786;2023-02-15T04:53:29;7.50;99.90
10583;DHT22;33679;51.218;6.786;2023-02-15T04:56:03;7.50;99.90
10583;DHT22;33679;51.218;6.786;2023-02-15T04:58:38;7.50;99.90
10583;DHT22;33679;51.218;6.786;2023-02-15T05:01:12;7.50;99.90
10583;DHT22;33679;51.218;6.786;2023-02-15T05:03:46;7.50;99.90
10583;DHT22;33679;51.218;6.786;2023-02-15T05:06:19;7.50;99.90
10583;DHT22;33679;51.218;6.786;2023-02-15T05:08:51;7.50;99.90
10583;DHT22;33679;51.218;6.786;2023-02-15T05:11:25;7.50;99.90
10583;DHT22;33679;51.218;6.786;2023-02-15T05:14:00;7.50;99.90
10583;DHT22;33679;51.218;6.786;2023-02-15T05:16:33;7.50;99.90
10583;DHT22;33679;51.218;6.786;2023-02-15T05:19:09;7.50;99.90
10583;DHT22;33679;51.218;6.786;2023-02-15T05:21:45;7.50;99.90
10583;DHT22;33679;51.218;6.786;2023-02-15T05:24:17;7.50;99.90
10583;DHT22;33679;51.218;6.786;2023-02-15T05:27:23;7.50;99.90
10583;DHT22;33679;51.218;6.786;2023-02-15T05:30:13;7.50;99.90
10583;DHT22;33679;51.218;6.786;2023-02-15T05:32:47;7.40;99.90
10583;DHT22;33679;51.218;6.786;2023-02-15T05:35:20;7.40;99.90
10583;DHT22;33679;51.218;6.786;2023-02-15T05:37:52;7.40;99.90
10583;DHT22;33679;51.218;6.786;2023-02-15T05:40:25;7.40;99.90
10583;DHT22;33679;51.218;6.786;2023-02-15T05:42:59;7.40;99.90
10583;DHT22;33679;51.218;6.786;2023-02-15T05:45:31;7.40;99.90
10583;DHT22;33679;51.218;6.786;2023-02-15T05:48:04;7.40;99.90
10583;DHT22;33679;51.218;6.786;2023-02-15T05:50:36;7.40;99.90
10583;DHT22;33679;51.218;6.786;2023-02-15T05:53:09;7.40;99.90
10583;DHT22;33679;51.218;6.786;2023-02-15T05:55:41;7.40;99.90
10583;DHT22;33679;51.218;6.786;2023-02-15T05:58:17;7.30;99.90
10583;DHT22;33679;51.218;6.786;2023-02-15T06:00:50;7.30;99.90
10583;DHT22;33679;51.218;6.786;2023-02-15T06:03:23;7.30;99.90
10583;DHT22;33679;51.218;6.786;2023-02-15T06:05:58;7.30;99.90
10583;DHT22;33679;51.218;6.786;2023-02-15T06:08:31;7.30;99.90
10583;DHT22;33679;51.218;6.786;2023-02-15T06:11:04;7.30;99.90
10583;DHT22;33679;51.218;6.786;2023-02-15T06:13:38;7.30;99.90
10583;DHT22;33679;51.218;6.786;2023-02-15T06:16:10;7.30;99.90
10583;DHT22;33679;51.218;6.786;2023-02-15T06:18:45;7.20;99.90
10583;DHT22;33679;51.218;6.786;2023-02-15T06:21:18;7.10;99.90
10583;DHT22;33679;51.218;6.786;2023-02-15T06:23:57;7.10;99.90
10583;DHT22;33679;51.218;6.786;2023-02-15T06:26:29;7.10;99.90
10583;DHT22;33679;51.218;6.786;2023-02-15T06:29:05;7.10;99.90
10583;DHT22;33679;51.218;6.786;2023-02-15T06:31:54;7.00;99.90
10583;DHT22;33679;51.218;6.786;2023-02-15T06:34:33;7.00;99.90
10583;DHT22;33679;51.218;6.786;2023-02-15T06:37:06;6.90;99.90
10583;DHT22;33679;51.218;6.786;2023-02-15T06:39:39;6.90;99.90
10583;DHT22;33679;51.218;6.786;2023-02-15T06:42:11;6.90;99.90
10583;DHT22;33679;51.218;6.786;2023-02-15T06:44:45;6.90;99.90
10583;DHT22;33679;51.218;6.786;2023-02-15T06:47:17;6.80;99.90
10583;DHT22;33679;51.218;6.786;2023-02-15T06:49:50;6.80;99.90
10583;DHT22;33679;51.218;6.786;2023-02-15T06:52:22;6.80;99.90
10583;DHT22;33679;51.218;6.786;2023-02-15T06:54:54;6.90;99.90
10583;DHT22;33679;51.218;6.786;2023-02-15T06:57:27;6.80;99.90
10583;DHT22;33679;51.218;6.786;2023-02-15T07:00:01;6.90;99.90
10583;DHT22;33679;51.218;6.786;2023-02-15T07:02:35;6.90;99.90
10583;DHT22;33679;51.218;6.786;2023-02-15T07:05:08;6.80;99.90
10583;DHT22;33679;51.218;6.786;2023-02-15T07:07:41;6.80;99.90
10583;DHT22;33679;51.218;6.786;2023-02-15T07:10:13;6.90;99.90
10583;DHT22;33679;51.218;6.786;2023-02-15T07:12:45;6.90;99.90
10583;DHT22;33679;51.218;6.786;2023-02-15T07:15:25;6.90;99.90
10583;DHT22;33679;51.218;6.786;2023-02-15T07:17:58;6.90;99.90
10583;DHT22;33679;51.218;6.786;2023-02-15T07:20:30;6.90;99.90
10583;DHT22;33679;51.218;6.786;2023-02-15T07:23:04;6.90;99.90
10583;DHT22;33679;51.218;6.786;2023-02-15T07:25:37;6.90;99.90
10583;DHT22;33679;51.218;6.786;2023-02-15T07:28:09;6.80;99.90
10583;DHT22;33679;51.218;6.786;2023-02-15T07:30:45;6.80;99.90
10583;DHT22;33679;51.218;6.786;2023-02-15T07:33:23;6.80;99.90
10583;DHT22;33679;51.218;6.786;2023-02-15T07:36:04;6.80;99.90
10583;DHT22;33679;51.218;6.786;2023-02-15T07:38:38;6.90;99.90
10583;DHT22;33679;51.218;6.786;2023-02-15T07:41:12;6.90;99.90
10583;DHT22;33679;51.218;6.786;2023-02-15T07:43:45;6.90;99.90
10583;DHT22;33679;51.218;6.786;2023-02-15T07:46:20;7.00;99.90
10583;DHT22;33679;51.218;6.786;2023-02-15T07:48:52;7.00;99.90
10583;DHT22;33679;51.218;6.786;2023-02-15T07:51:25;7.00;99.90
10583;DHT22;33679;51.218;6.786;2023-02-15T07:53:57;7.10;99.90
10583;DHT22;33679;51.218;6.786;2023-02-15T07:56:29;7.10;99.90
10583;DHT22;33679;51.218;6.786;2023-02-15T07:59:04;7.10;99.90
10583;DHT22;33679;51.218;6.786;2023-02-15T08:01:39;7.10;99.90
10583;DHT22;33679;51.218;6.786;2023-02-15T08:04:12;7.20;99.90
10583;DHT22;33679;51.218;6.786;2023-02-15T08:06:44;7.20;99.90
10583;DHT22;33679;51.218;6.786;2023-02-15T08:09:16;7.10;99.90
10583;DHT22;33679;51.218;6.786;2023-02-15T08:11:49;7.20;99.90
10583;DHT22;33679;51.218;6.786;2023-02-15T08:14:21;7.20;99.90
10583;DHT22;33679;51.218;6.786;2023-02-15T08:16:58;7.20;99.90
10583;DHT22;33679;51.218;6.786;2023-02-15T08:19:33;7.20;99.90
10583;DHT22;33679;51.218;6.786;2023-02-15T08:22:10;7.20;99.90
10583;DHT22;33679;51.218;6.786;2023-02-15T08:24:46;7.30;99.90
10583;DHT22;33679;51.218;6.786;2023-02-15T08:27:19;7.20;99.90
10583;DHT22;33679;51.218;6.786;2023-02-15T08:29:57;7.30;99.90
10583;DHT22;33679;51.218;6.786;2023-02-15T08:32:31;7.30;99.90
10583;DHT22;33679;51.218;6.786;2023-02-15T08:35:04;7.30;99.90
10583;DHT22;33679;51.218;6.786;2023-02-15T08:37:36;7.30;99.90
10583;DHT22;33679;51.218;6.786;2023-02-15T08:40:11;7.30;99.90
10583;DHT22;33679;51.218;6.786;2023-02-15T08:42:44;7.30;99.90
10583;DHT22;33679;51.218;6.786;2023-02-15T08:45:16;7.40;99.90
10583;DHT22;33679;51.218;6.786;2023-02-15T08:47:50;7.40;99.90
10583;DHT22;33679;51.218;6.786;2023-02-15T08:50:23;7.40;99.90
10583;DHT22;33679;51.218;6.786;2023-02-15T08:52:56;7.50;99.90
10583;DHT22;33679;51.218;6.786;2023-02-15T08:55:29;7.40;99.90
10583;DHT22;33679;51.218;6.786;2023-02-15T08:58:01;7.50;99.90
10583;DHT22;33679;51.218;6.786;2023-02-15T09:00:35;7.50;99.90
10583;DHT22;33679;51.218;6.786;2023-02-15T09:03:08;7.50;99.90
10583;DHT22;33679;51.218;6.786;2023-02-15T09:05:42;7.50;99.90
10583;DHT22;33679;51.218;6.786;2023-02-15T09:08:14;7.50;99.90
10583;DHT22;33679;51.218;6.786;2023-02-15T09:10:46;7.60;99.90
10583;DHT22;33679;51.218;6.786;2023-02-15T09:13:19;7.60;99.90
10583;DHT22;33679;51.218;6.786;2023-02-15T09:15:59;7.60;99.90
10583;DHT22;33679;51.218;6.786;2023-02-15T09:18:34;7.70;99.90
10583;DHT22;33679;51.218;6.786;2023-02-15T09:21:10;7.80;99.90
10583;DHT22;33679;51.218;6.786;2023-02-15T09:23:48;7.80;99.90
10583;DHT22;33679;51.218;6.786;2023-02-15T09:26:21;7.80;99.90
10583;DHT22;33679;51.218;6.786;2023-02-15T09:28:59;7.90;99.90
10583;DHT22;33679;51.218;6.786;2023-02-15T09:31:33;7.90;99.90
10583;DHT22;33679;51.218;6.786;2023-02-15T09:34:10;7.90;99.90
10583;DHT22;33679;51.218;6.786;2023-02-15T09:36:42;8.00;99.90
10583;DHT22;33679;51.218;6.786;2023-02-15T09:39:16;8.10;99.90
10583;DHT22;33679;51.218;6.786;2023-02-15T09:42:26;8.10;99.90
10583;DHT22;33679;51.218;6.786;2023-02-15T09:45:31;8.20;99.90
10583;DHT22;33679;51.218;6.786;2023-02-15T09:51:44;8.30;99.90
10583;DHT22;33679;51.218;6.786;2023-02-15T09:54:42;8.30;99.90
10583;DHT22;33679;51.218;6.786;2023-02-15T09:57:27;8.40;99.90
10583;DHT22;33679;51.218;6.786;2023-02-15T10:00:07;8.50;99.90
10583;DHT22;33679;51.218;6.786;2023-02-15T10:03:01;8.50;99.90
10583;DHT22;33679;51.218;6.786;2023-02-15T10:05:50;8.60;99.90
10583;DHT22;33679;51.218;6.786;2023-02-15T10:08:56;8.70;99.90
10583;DHT22;33679;51.218;6.786;2023-02-15T10:11:45;8.80;99.90
10583;DHT22;33679;51.218;6.786;2023-02-15T10:14:35;8.90;99.90
10583;DHT22;33679;51.218;6.786;2023-02-15T10:17:21;8.90;99.90
10583;DHT22;33679;51.218;6.786;2023-02-15T10:20:02;9.00;99.90
10583;DHT22;33679;51.218;6.786;2023-02-15T10:22:51;9.10;99.90
10583;DHT22;33679;51.218;6.786;2023-02-15T10:25:39;9.20;99.90
10583;DHT22;33679;51.218;6.786;2023-02-15T10:28:16;9.30;99.90
10583;DHT22;33679;51.218;6.786;2023-02-15T10:30:54;9.40;99.90
10583;DHT22;33679;51.218;6.786;2023-02-15T10:33:37;9.40;99.90
10583;DHT22;33679;51.218;6.786;2023-02-15T10:36:22;9.50;99.90
10583;DHT22;33679;51.218;6.786;2023-02-15T10:39:07;9.50;99.90
10583;DHT22;33679;51.218;6.786;2023-02-15T10:41:54;9.60;99.90
10583;DHT22;33679;51.218;6.786;2023-02-15T10:44:52;9.60;99.90
10583;DHT22;33679;51.218;6.786;2023-02-15T10:47:46;9.70;99.90
10583;DHT22;33679;51.218;6.786;2023-02-15T10:50:33;9.80;99.90
10583;DHT22;33679;51.218;6.786;2023-02-15T10:53:18;9.80;99.90
10583;DHT22;33679;51.218;6.786;2023-02-15T10:55:55;9.80;99.90
10583;DHT22;33679;51.218;6.786;2023-02-15T10:58:42;9.90;99.90
10583;DHT22;33679;51.218;6.786;2023-02-15T11:01:27;10.00;99.90
10583;DHT22;33679;51.218;6.786;2023-02-15T11:04:48;10.00;99.90
10583;DHT22;33679;51.218;6.786;2023-02-15T11:07:25;10.10;99.90
10583;DHT22;33679;51.218;6.786;2023-02-15T11:10:05;10.20;99.90
10583;DHT22;33679;51.218;6.786;2023-02-15T11:12:41;10.30;99.90
10583;DHT22;33679;51.218;6.786;2023-02-15T11:15:21;10.40;99.90
10583;DHT22;33679;51.218;6.786;2023-02-15T11:18:01;10.50;99.90
10583;DHT22;33679;51.218;6.786;2023-02-15T11:20:41;10.50;99.90
10583;DHT22;33679;51.218;6.786;2023-02-15T11:23:21;10.60;99.90
10583;DHT22;33679;51.218;6.786;2023-02-15T11:25:57;10.60;99.90
10583;DHT22;33679;51.218;6.786;2023-02-15T11:28:43;10.70;99.90
10583;DHT22;33679;51.218;6.786;2023-02-15T11:31:37;10.80;99.90
10583;DHT22;33679;51.218;6.786;2023-02-15T11:34:22;10.80;99.90
10583;DHT22;33679;51.218;6.786;2023-02-15T11:37:01;10.90;99.90
10583;DHT22;33679;51.218;6.786;2023-02-15T11:39:37;11.00;99.90
10583;DHT22;33679;51.218;6.786;2023-02-15T11:42:13;11.00;99.90
10583;DHT22;33679;51.218;6.786;2023-02-15T11:44:56;11.10;99.90
10583;DHT22;33679;51.218;6.786;2023-02-15T11:47:35;11.20;99.90
10583;DHT22;33679;51.218;6.786;2023-02-15T11:50:13;11.30;99.90
10583;DHT22;33679;51.218;6.786;2023-02-15T11:52:47;11.40;99.90
10583;DHT22;33679;51.218;6.786;2023-02-15T11:55:19;11.50;99.90
10583;DHT22;33679;51.218;6.786;2023-02-15T11:57:55;11.60;99.90
10583;DHT22;33679;51.218;6.786;2023-02-15T12:00:33;11.60;99.90
10583;DHT22;33679;51.218;6.786;2023-02-15T12:03:14;11.70;99.90
10583;DHT22;33679;51.218;6.786;2023-02-15T12:05:51;11.70;99.90
10583;DHT22;33679;51.218;6.786;2023-02-15T12:08:27;11.80;99.90
10583;DHT22;33679;51.218;6.786;2023-02-15T12:11:07;11.80;99.90
10583;DHT22;33679;51.218;6.786;2023-02-15T12:13:57;11.90;99.90
10583;DHT22;33679;51.218;6.786;2023-02-15T12:16:40;11.90;99.90
10583;DHT22;33679;51.218;6.786;2023-02-15T12:19:27;11.90;99.90
10583;DHT22;33679;51.218;6.786;2023-02-15T12:22:02;12.00;99.90
10583;DHT22;33679;51.218;6.786;2023-02-15T12:24:43;12.10;99.90
10583;DHT22;33679;51.218;6.786;2023-02-15T12:27:17;12.20;99.90
10583;DHT22;33679;51.218;6.786;2023-02-15T12:29:55;12.20;99.90
10583;DHT22;33679;51.218;6.786;2023-02-15T12:32:34;12.30;99.90
10583;DHT22;33679;51.218;6.786;2023-02-15T12:35:18;12.40;99.90
10583;DHT22;33679;51.218;6.786;2023-02-15T12:37:56;12.40;99.90
10583;DHT22;33679;51.218;6.786;2023-02-15T12:40:29;12.50;99.90
10583;DHT22;33679;51.218;6.786;2023-02-15T12:43:02;12.60;99.90
10583;DHT22;33679;51.218;6.786;2023-02-15T12:45:39;12.70;99.90
10583;DHT22;33679;51.218;6.786;2023-02-15T12:48:17;12.80;99.90
10583;DHT22;33679;51.218;6.786;2023-02-15T12:50:52;12.80;99.90
10583;DHT22;33679;51.218;6.786;2023-02-15T12:53:41;12.90;99.90
10583;DHT22;33679;51.218;6.786;2023-02-15T12:56:26;12.90;99.90
10583;DHT22;33679;51.218;6.786;2023-02-15T12:59:04;12.90;99.90
10583;DHT22;33679;51.218;6.786;2023-02-15T13:01:39;13.00;99.90
10583;DHT22;33679;51.218;6.786;2023-02-15T13:04:22;13.00;99.90
10583;DHT22;33679;51.218;6.786;2023-02-15T13:06:58;13.00;99.90
10583;DHT22;33679;51.218;6.786;2023-02-15T13:09:38;13.00;99.90
10583;DHT22;33679;51.218;6.786;2023-02-15T13:12:20;13.10;99.90
10583;DHT22;33679;51.218;6.786;2023-02-15T13:14:54;13.10;99.90
10583;DHT22;33679;51.218;6.786;2023-02-15T13:17:30;13.10;99.90
10583;DHT22;33679;51.218;6.786;2023-02-15T13:20:09;13.20;99.90
10583;DHT22;33679;51.218;6.786;2023-02-15T13:22:57;13.30;99.90
10583;DHT22;33679;51.218;6.786;2023-02-15T13:25:32;13.30;99.90
10583;DHT22;33679;51.218;6.786;2023-02-15T13:28:13;13.30;99.90
10583;DHT22;33679;51.218;6.786;2023-02-15T13:30:47;13.40;99.90
10583;DHT22;33679;51.218;6.786;2023-02-15T13:33:30;13.40;99.90
10583;DHT22;33679;51.218;6.786;2023-02-15T13:36:13;13.50;99.90
10583;DHT22;33679;51.218;6.786;2023-02-15T13:39:02;13.50;99.90
10583;DHT22;33679;51.218;6.786;2023-02-15T13:41:48;13.60;99.90
10583;DHT22;33679;51.218;6.786;2023-02-15T13:44:53;13.60;99.90
10583;DHT22;33679;51.218;6.786;2023-02-15T13:47:32;13.60;99.90
10583;DHT22;33679;51.218;6.786;2023-02-15T13:50:19;13.60;99.90
10583;DHT22;33679;51.218;6.786;2023-02-15T13:53:01;13.60;99.90
10583;DHT22;33679;51.218;6.786;2023-02-15T13:55:44;13.70;99.90
10583;DHT22;33679;51.218;6.786;2023-02-15T13:58:38;13.80;99.90
10583;DHT22;33679;51.218;6.786;2023-02-15T14:01:22;13.80;99.90
10583;DHT22;33679;51.218;6.786;2023-02-15T14:04:21;13.90;99.90
10583;DHT22;33679;51.218;6.786;2023-02-15T14:08:08;13.80;99.90
10583;DHT22;33679;51.218;6.786;2023-02-15T14:10:51;13.90;99.90
10583;DHT22;33679;51.218;6.786;2023-02-15T14:14:13;13.90;99.90
10583;DHT22;33679;51.218;6.786;2023-02-15T14:17:22;14.00;99.90
10583;DHT22;33679;51.218;6.786;2023-02-15T14:19:59;14.00;99.90
10583;DHT22;33679;51.218;6.786;2023-02-15T14:22:36;14.10;99.90
10583;DHT22;33679;51.218;6.786;2023-02-15T14:25:20;14.10;99.90
10583;DHT22;33679;51.218;6.786;2023-02-15T14:28:05;14.10;99.90
10583;DHT22;33679;51.218;6.786;2023-02-15T14:30:45;14.10;99.90
10583;DHT22;33679;51.218;6.786;2023-02-15T14:33:31;14.10;99.90
10583;DHT22;33679;51.218;6.786;2023-02-15T14:36:06;14.10;99.90
10583;DHT22;33679;51.218;6.786;2023-02-15T14:38:54;14.10;99.90
10583;DHT22;33679;51.218;6.786;2023-02-15T14:41:39;14.10;99.90
10583;DHT22;33679;51.218;6.786;2023-02-15T14:44:20;14.10;99.90
10583;DHT22;33679;51.218;6.786;2023-02-15T14:47:01;14.10;99.90
10583;DHT22;33679;51.218;6.786;2023-02-15T14:49:38;14.00;99.90
10583;DHT22;33679;51.218;6.786;2023-02-15T14:52:12;14.00;99.90
10583;DHT22;33679;51.218;6.786;2023-02-15T14:55:00;14.10;99.90
10583;DHT22;33679;51.218;6.786;2023-02-15T14:57:35;14.10;99.90
10583;DHT22;33679;51.218;6.786;2023-02-15T15:00:49;14.10;99.90
10583;DHT22;33679;51.218;6.786;2023-02-15T15:03:24;14.20;99.90
10583;DHT22;33679;51.218;6.786;2023-02-15T15:06:02;14.20;99.90
10583;DHT22;33679;51.218;6.786;2023-02-15T15:08:38;14.20;99.90
10583;DHT22;33679;51.218;6.786;2023-02-15T15:11:45;14.20;99.90
10583;DHT22;33679;51.218;6.786;2023-02-15T15:14:40;14.20;99.90
10583;DHT22;33679;51.218;6.786;2023-02-15T15:20:46;14.30;99.90
10583;DHT22;33679;51.218;6.786;2023-02-15T15:23:39;14.30;99.90
10583;DHT22;33679;51.218;6.786;2023-02-15T15:26:28;14.30;99.90
10583;DHT22;33679;51.218;6.786;2023-02-15T15:29:02;14.30;99.90
10583;DHT22;33679;51.218;6.786;2023-02-15T15:31:43;14.30;99.90
10583;DHT22;33679;51.218;6.786;2023-02-15T15:34:45;14.30;99.90
10583;DHT22;33679;51.218;6.786;2023-02-15T15:38:05;14.30;99.90
10583;DHT22;33679;51.218;6.786;2023-02-15T15:41:17;14.30;99.90
10583;DHT22;33679;51.218;6.786;2023-02-15T15:44:49;14.30;99.90
10583;DHT22;33679;51.218;6.786;2023-02-15T15:47:40;14.30;99.90
10583;DHT22;33679;51.218;6.786;2023-02-15T15:50:41;14.30;99.90
10583;DHT22;33679;51.218;6.786;2023-02-15T15:53:28;14.30;99.90
10583;DHT22;33679;51.218;6.786;2023-02-15T15:56:06;14.30;99.90
10583;DHT22;33679;51.218;6.786;2023-02-15T15:58:45;14.30;99.90
10583;DHT22;33679;51.218;6.786;2023-02-15T16:01:26;14.30;99.90
10583;DHT22;33679;51.218;6.786;2023-02-15T16:04:00;14.30;99.90
10583;DHT22;33679;51.218;6.786;2023-02-15T16:06:36;14.30;99.90
10583;DHT22;33679;51.218;6.786;2023-02-15T16:13:32;14.20;99.90
10583;DHT22;33679;51.218;6.786;2023-02-15T16:16:52;14.30;99.90
10583;DHT22;33679;51.218;6.786;2023-02-15T16:19:40;14.30;99.90
10583;DHT22;33679;51.218;6.786;2023-02-15T16:22:26;14.20;99.90
10583;DHT22;33679;51.218;6.786;2023-02-15T16:25:32;14.20;99.90
10583;DHT22;33679;51.218;6.786;2023-02-15T16:28:51;14.10;99.90
10583;DHT22;33679;51.218;6.786;2023-02-15T16:36:01;14.10;99.90
10583;DHT22;33679;51.218;6.786;2023-02-15T16:42:57;13.90;99.90
10583;DHT22;33679;51.218;6.786;2023-02-15T16:46:21;13.90;99.90
10583;DHT22;33679;51.218;6.786;2023-02-15T16:49:21;13.90;99.90
10583;DHT22;33679;51.218;6.786;2023-02-15T16:55:22;13.90;99.90
10583;DHT22;33679;51.218;6.786;2023-02-15T16:58:01;13.80;99.90
10583;DHT22;33679;51.218;6.786;2023-02-15T17:00:39;13.70;99.90
10583;DHT22;33679;51.218;6.786;2023-02-15T17:03:22;13.70;99.90
10583;DHT22;33679;51.218;6.786;2023-02-15T17:05:56;13.60;99.90
10583;DHT22;33679;51.218;6.786;2023-02-15T17:08:32;13.50;99.90
10583;DHT22;33679;51.218;6.786;2023-02-15T17:11:21;13.50;99.90
10583;DHT22;33679;51.218;6.786;2023-02-15T17:14:21;13.50;99.90
10583;DHT22;33679;51.218;6.786;2023-02-15T17:16:58;13.40;99.90
10583;DHT22;33679;51.218;6.786;2023-02-15T17:19:44;13.30;99.90
10583;DHT22;33679;51.218;6.786;2023-02-15T17:22:24;13.30;99.90
10583;DHT22;33679;51.218;6.786;2023-02-15T17:25:00;13.30;99.90
10583;DHT22;33679;51.218;6.786;2023-02-15T17:27:36;13.20;99.90
10583;DHT22;33679;51.218;6.786;2023-02-15T17:30:23;13.20;99.90